METAR Data
IDs: Format: Raw Decoded Include TAF

Data at: 1014 UTC 18 Jan 2022

KDIK 180956Z AUTO 27015KT 10SM CLR 04/M02 A2943 RMK AO2 SLP976 T00441017
KDIK 180856Z AUTO 26012KT 10SM CLR 03/M02 A2943 RMK AO2 SLP976 T00331022 57011
KDIK 180756Z AUTO 26015KT 10SM SCT085 06/M02 A2944 RMK AO2 SLP977 T00561022
KDIK 180656Z AUTO 26014KT 10SM CLR 05/M02 A2946 RMK AO2 PK WND 27026/0637 SLP985 T00501022 400891011
KDIK 180556Z AUTO 25010KT 10SM CLR 04/M02 A2947 RMK AO2 SLP991 T00391022 10044 20017 56024
KDIK 180456Z AUTO 24014KT 10SM CLR 04/M02 A2948 RMK AO2 SLP998 T00391022
KDIK 180356Z AUTO 24012KT 10SM CLR 04/M02 A2951 RMK AO2 SLP010 T00391022
KDIK 180256Z AUTO 25011KT 10SM CLR 03/M02 A2954 RMK AO2 SLP023 T00331017 58016
KDIK 180156Z AUTO 23011KT 10SM CLR 04/M01 A2957 RMK AO2 SLP032 T00391011
KDIK 180056Z AUTO 22010KT 10SM CLR 02/M02 A2958 RMK AO2 SLP038 T00171017
KDIK 172356Z AUTO 24008KT 10SM CLR 02/M02 A2959 RMK AO2 SLP041 T00221017 10089 20022 58009
KDIK 172256Z AUTO 26008KT 10SM CLR 06/M01 A2961 RMK AO2 SLP043 T00611006
KDIK 172156Z AUTO 24010KT 10SM CLR 08/00 A2962 RMK AO2 SLP044 T00830000
KDIK 172056Z AUTO 27009KT 10SM FEW090 09/M01 A2962 RMK AO2 SLP046 T00891006 56018
KDIK 171956Z AUTO 27013KT 10SM FEW090 08/M01 A2964 RMK AO2 SLP050 T00831011
KDIK 171856Z AUTO 28014KT 10SM CLR 07/M02 A2966 RMK AO2 SLP061 T00721017
KDIK 171756Z AUTO 28015KT 10SM CLR 06/M02 A2968 RMK AO2 SLP071 T00561017 10056 21011 50003
KDIK 171656Z AUTO 27014KT 10SM CLR 03/M03 A2969 RMK AO2 SLP076 T00331028
KDIK 171556Z AUTO 27011KT 10SM CLR 01/M03 A2968 RMK AO2 SLP075 T00111033
KDIK 171456Z AUTO 27010KT 10SM CLR M01/M04 A2967 RMK AO2 SLP073 T10061044 55002
KDIK 171356Z AUTO 27010KT 10SM CLR M01/M04 A2966 RMK AO2 SLP070 T10061044
KDIK 171256Z AUTO 25008KT 10SM CLR M01/M04 A2968 RMK AO2 SLP076 T10061044
KDIK 171156Z AUTO 22010KT 10SM BKN075 01/M04 A2968 RMK AO2 SLP072 T00111039 10017 21011 56018
KDIK 171056Z AUTO 21006KT 10SM FEW065 OVC075 01/M03 A2969 RMK AO2 SLP075 T00111033
KDIK 170956Z AUTO 19010KT 10SM BKN060 OVC075 01/M03 A2971 RMK AO2 SLP082 T00061033
KDIK 170856Z AUTO 16006KT 10SM BKN065 OVC080 00/M04 A2974 RMK AO2 SLP090 T00001039 58031
KDIK 170756Z AUTO 17007KT 10SM OVC085 00/M04 A2977 RMK AO2 SLP101 T00001039
KDIK 170656Z AUTO 21006KT 10SM OVC110 M01/M04 A2981 RMK AO2 SLP116 T10061039 400441028
KDIK 170556Z AUTO 25006KT 10SM CLR M01/M04 A2984 RMK AO2 SLP126 T10111039 10006 21028 58019
KDIK 170456Z AUTO 25008KT 10SM SCT120 M01/M04 A2986 RMK AO2 SLP134 T10111039
KDIK 170356Z AUTO 24010KT 10SM CLR M02/M04 A2988 RMK AO2 SLP142 T10221044
KDIK 170256Z AUTO 25010KT 10SM CLR M01/M04 A2990 RMK AO2 SLP150 T10111039 58010
KDIK 170156Z AUTO 27010KT 10SM CLR M01/M04 A2993 RMK AO2 SLP158 T10111044
KDIK 170056Z AUTO 27009KT 10SM CLR M01/M05 A2993 RMK AO2 SLP159 T10111050
KDIK 162356Z AUTO 29011KT 10SM CLR 01/M04 A2993 RMK AO2 SLP157 T00061044 10044 20006 58007
KDIK 162256Z AUTO 29011KT 10SM CLR 03/M04 A2995 RMK AO2 PK WND 31026/2157 SLP165 T00281039